Wayne, NE

3:06 PM CDT on July 31, 2014 (GMT -0500)
Courthouse Hill (KNEWAYNE3) Elev 1512 ft | 42.23 °N, 97.02 °W | Change Station

Current weather conditions updated 2 minutes ago

Overcast
Overcast
85.3 °F
Feels Like 85 °F
N
2.0
Wind Variable Wind from SW
Gusts 4.9 mph

Today is forecast to be Warmer than yesterday. Isolated thunderstorms tomorrow night.

Today
High -- | Low -- °F
--% Chance of Precip.
Yesterday
High -- | Low -- °F
Precip. -- in
6:19 AM 8:48 PM
Waxing Crescent, 20% visible
Pressure 30.06 in
Visibility 10.0 miles
Clouds Overcast 7000 ft
Heat Index 85 °F
Dew Point 60 °F
Humidity 43%
Rainfall 0.00 in
Snow Depth Not available.
UV 3 out of 12
Pollen 6.60 out of 12
Air Quality Not available.
Flu Activity Not available.
METAR KLCG 311955Z AUTO 11004KT 10SM OVC070 28/16 A3006 RMK AO2 T02810160

More Conditions Fewer Conditions

Pressure 30.06 in
Visibility 10.0 miles
Clouds Overcast 7000 ft
Heat Index 85 °F
Dew Point 60 °F
Humidity 43%
Rainfall 0.00 in
Snow Depth Not available.
UV 3 out of 12
Pollen 6.60 out of 12
Air Quality Not available.
Flu Activity Not available.
METAR KLCG 311955Z AUTO 11004KT 10SM OVC070 28/16 A3006 RMK AO2 T02810160

More Conditions Fewer Conditions

10-Day Weather Forecast

Almanac

Astronomy

Jul. 31, 2014 Rise Set
Actual Time 6:19 AM CDT 8:48 PM CDT
Civil Twilight 5:48 AM CDT 9:19 PM CDT
Nautical Twilight 5:08 AM CDT 9:59 PM CDT
Astronomical Twilight 4:24 AM CDT 10:43 PM CDT
Moon 10:54 AM CDT 10:55 PM CDT
Length of Visible Light 15h 31m
Length of Day
14h 28m
Tomorrow will be 2m 8s shorter.
Waxing Crescent, 20% of the Moon is Illuminated
Today
Waxing Crescent
Aug 3
First Quarter
Aug 10
Full
Aug 17
Last Quarter
Aug 25
New

Today's Extremes

State Highs State Lows

Community

WunderPhotos

Upload Photos

1,739,446 photos uploaded!

Nearby

Snow Depth

Station Depth Elevation
No new snow has been reported.

Earthquake Activity

City Distance Mag. Time & Date
No recent earthquake activity has been reported nearby.
Minimum magnitude displayed is 2.5.

Coastal Water Temperatures

Place Temperature
No Stations Reporting

Nearby Weather Stations

Station Location Temp. Heat Index Dew Point Humidity Wind Precip. Elev Updated Type
Courthouse Hill, Wayne, NE 85.3 °F 85 °F 60 °F 43% SW  at  2.0 mph 0.00 in / hr 1512 ft 3:04 PM CDT Rapid Fire
1 mile South of Wayne, Wayne, NE 81.1 °F 82 °F 63 °F 54% East  at  2.9 mph 0.00 in / hr 1463 ft 2:42 PM CDT Rapid Fire
Woodland Park, Norfolk, NE 83.7 °F 85 °F 64 °F 51% ENE  at  4.3 mph 0.00 in / hr 1700 ft 3:06 PM CDT Rapid Fire

Show More Stations Show Fewer Stations